createdAt,value
2022-10-24T00:00:17.783Z,72.19
2022-10-24T00:02:21.484Z,72.38
2022-10-24T00:04:26.143Z,72.67
2022-10-24T00:06:31.120Z,73.55
2022-10-24T00:08:35.665Z,73.72
2022-10-24T00:10:42.208Z,73.88
2022-10-24T00:12:46.183Z,74.25
2022-10-24T00:14:49.995Z,74.78
2022-10-24T00:16:56.299Z,75.23
2022-10-24T00:18:59.926Z,75.10
2022-10-24T00:21:03.763Z,75.25
2022-10-24T00:23:07.564Z,75.55
2022-10-24T00:25:11.359Z,76.03
2022-10-24T00:27:14.679Z,75.83
2022-10-24T00:29:18.384Z,76.29
2022-10-24T00:31:21.991Z,76.48
2022-10-24T00:33:26.810Z,76.49
2022-10-24T00:35:30.421Z,76.48
2022-10-24T00:37:34.013Z,76.54
2022-10-24T00:39:37.743Z,76.98
2022-10-24T00:41:45.015Z,77.57
2022-10-24T00:43:49.323Z,76.99
2022-10-24T00:46:03.481Z,76.91
2022-10-24T00:48:30.041Z,77.55
2022-10-24T00:50:34.187Z,77.95
2022-10-24T00:52:39.690Z,77.44
2022-10-24T00:54:43.593Z,77.22
2022-10-24T00:56:51.721Z,77.43
2022-10-24T00:58:56.278Z,77.77
2022-10-24T01:01:00.190Z,77.44
2022-10-24T01:03:04.057Z,77.91
2022-10-24T01:05:08.116Z,77.74
2022-10-24T01:07:11.770Z,77.98
2022-10-24T01:09:34.406Z,78.17
2022-10-24T01:11:37.626Z,75.29
2022-10-24T01:13:55.757Z,77.39
2022-10-24T01:16:03.526Z,76.94
2022-10-24T01:18:12.682Z,78.05
2022-10-24T01:20:19.463Z,77.50
2022-10-24T01:22:29.926Z,77.59
2022-10-24T01:24:54.632Z,76.34
2022-10-24T01:27:04.763Z,76.92
2022-10-24T01:29:16.626Z,76.73
2022-10-24T01:31:28.885Z,78.64
2022-10-24T01:33:41.757Z,78.72
2022-10-24T01:35:55.136Z,78.68
2022-10-24T01:38:04.466Z,78.37
2022-10-24T01:40:13.218Z,78.02
2022-10-24T01:42:18.681Z,77.33
2022-10-24T01:44:42.304Z,77.72
2022-10-24T01:46:53.393Z,78.10
2022-10-24T01:49:00.316Z,77.69
2022-10-24T01:51:04.592Z,78.21
2022-10-24T01:53:09.320Z,78.25
2022-10-24T01:55:14.099Z,78.24
2022-10-24T01:57:18.151Z,78.29
2022-10-24T01:59:30.491Z,78.02
2022-10-24T02:01:36.447Z,78.60
2022-10-24T02:03:45.556Z,78.70
2022-10-24T02:05:52.758Z,78.59
2022-10-24T02:07:59.589Z,78.47
2022-10-24T02:10:13.927Z,78.39
2022-10-24T02:12:23.867Z,78.88
2022-10-24T02:14:37.642Z,78.72
2022-10-24T02:16:45.261Z,79.09
2022-10-24T02:18:50.567Z,78.99
2022-10-24T02:20:56.711Z,79.20
2022-10-24T02:23:22.372Z,79.58
2022-10-24T02:25:34.371Z,79.23
2022-10-24T02:27:44.519Z,79.28
2022-10-24T02:30:00.601Z,79.47
2022-10-24T02:32:07.925Z,79.53
2022-10-24T02:36:23.623Z,79.11
2022-10-24T02:38:38.445Z,79.24
2022-10-24T02:40:43.546Z,79.19
2022-10-24T02:42:49.489Z,79.11
2022-10-24T02:44:53.876Z,79.17
2022-10-24T02:46:59.733Z,79.40
2022-10-24T02:49:04.479Z,79.64
2022-10-24T02:51:08.287Z,80.29
2022-10-24T02:53:14.676Z,80.03
2022-10-24T02:55:18.199Z,79.63
2022-10-24T02:57:23.055Z,79.93
2022-10-24T02:59:26.669Z,80.72
2022-10-24T03:01:30.233Z,81.04
2022-10-24T03:03:33.936Z,80.37
2022-10-24T03:05:37.397Z,80.39
2022-10-24T03:07:41.057Z,80.38
2022-10-24T03:09:44.414Z,80.87
2022-10-24T03:11:48.264Z,81.04
2022-10-24T03:13:52.514Z,81.09
2022-10-24T03:15:56.026Z,81.17
2022-10-24T03:17:59.538Z,81.09
2022-10-24T03:20:03.209Z,81.31
2022-10-24T03:22:06.708Z,81.13
2022-10-24T03:24:10.604Z,80.99
2022-10-24T03:26:14.245Z,80.63
2022-10-24T03:28:17.841Z,81.63
2022-10-24T03:30:21.251Z,80.71
2022-10-24T03:34:33.534Z,80.13
2022-10-24T03:36:37.181Z,79.54
2022-10-24T03:38:41.041Z,80.09
2022-10-24T03:42:49.754Z,78.72
2022-10-24T03:44:53.911Z,78.94
2022-10-24T03:46:57.286Z,79.00
2022-10-24T03:51:05.444Z,79.32
2022-10-24T03:53:09.257Z,78.32
2022-10-24T03:55:13.299Z,78.48
2022-10-24T03:57:17.040Z,77.38
2022-10-24T03:59:20.537Z,76.91
2022-10-24T04:01:25.269Z,76.91
2022-10-24T04:03:29.162Z,77.02
2022-10-24T04:05:34.802Z,76.49
2022-10-24T04:07:41.524Z,77.23
2022-10-24T04:09:45.774Z,76.85
2022-10-24T04:11:49.685Z,75.78
2022-10-24T04:13:53.795Z,75.70
2022-10-24T04:15:57.485Z,75.36
2022-10-24T04:18:01.175Z,75.33
2022-10-24T04:20:05.150Z,75.16
2022-10-24T04:22:08.938Z,74.06
2022-10-24T04:24:13.470Z,74.56
2022-10-24T04:26:17.500Z,74.39
2022-10-24T04:28:21.103Z,74.10
2022-10-24T04:30:24.465Z,73.71
2022-10-24T04:32:28.118Z,73.89
2022-10-24T04:34:31.529Z,73.53
2022-10-24T04:36:36.253Z,73.58
2022-10-24T04:38:39.738Z,73.65
2022-10-24T04:40:46.530Z,73.41
2022-10-24T04:42:50.588Z,73.42
2022-10-24T04:44:54.018Z,73.44
2022-10-24T04:46:57.755Z,72.87
2022-10-24T04:49:01.628Z,72.89
2022-10-24T04:51:05.473Z,72.71
2022-10-24T04:53:09.248Z,72.27
2022-10-24T04:55:13.235Z,72.41
2022-10-24T04:57:16.920Z,71.95
2022-10-24T04:59:20.390Z,71.55
2022-10-24T05:01:24.123Z,71.89
2022-10-24T05:03:27.632Z,71.67
2022-10-24T05:05:31.396Z,72.33
2022-10-24T05:07:35.007Z,71.38
2022-10-24T05:09:38.537Z,70.99
2022-10-24T05:11:42.508Z,71.40
2022-10-24T05:13:46.310Z,71.30
2022-10-24T05:15:49.854Z,71.02
2022-10-24T05:17:53.687Z,70.93
2022-10-24T05:19:57.197Z,70.91
2022-10-24T05:22:01.036Z,70.59
2022-10-24T05:24:04.539Z,70.45
2022-10-24T05:26:08.678Z,70.38
2022-10-24T05:28:12.455Z,70.93
2022-10-24T05:30:16.846Z,71.02
2022-10-24T05:32:20.280Z,71.02
2022-10-24T05:34:23.917Z,71.44
2022-10-24T05:36:27.579Z,71.12
2022-10-24T05:38:31.393Z,70.76
2022-10-24T05:40:34.856Z,70.76
2022-10-24T05:42:39.953Z,70.83
2022-10-24T05:44:43.402Z,69.76
2022-10-24T05:46:47.562Z,69.68
2022-10-24T05:48:51.388Z,68.97
2022-10-24T05:50:59.168Z,69.63
2022-10-24T05:53:03.254Z,70.33
2022-10-24T05:55:08.317Z,70.10
2022-10-24T05:57:12.459Z,70.89
2022-10-24T05:59:16.209Z,70.34
2022-10-24T06:01:19.769Z,70.13
2022-10-24T06:03:23.645Z,69.68
2022-10-24T06:05:27.908Z,69.47
2022-10-24T06:07:32.556Z,69.75
2022-10-24T06:09:36.102Z,70.30
2022-10-24T06:11:39.659Z,70.23
2022-10-24T06:13:43.348Z,70.12
2022-10-24T06:15:47.107Z,70.40
2022-10-24T06:17:51.275Z,70.56
2022-10-24T06:19:57.650Z,70.95
2022-10-24T06:22:01.489Z,70.88
2022-10-24T06:24:05.444Z,70.76
2022-10-24T06:26:11.176Z,70.77
2022-10-24T06:28:15.851Z,70.47
2022-10-24T06:30:19.482Z,70.79
2022-10-24T06:32:23.564Z,70.35
2022-10-24T06:34:27.305Z,70.89
2022-10-24T06:36:31.632Z,71.51
2022-10-24T06:38:35.734Z,71.61
2022-10-24T06:40:41.906Z,71.40
2022-10-24T06:42:46.032Z,71.49
2022-10-24T06:44:49.683Z,71.72
2022-10-24T06:46:53.050Z,72.03
2022-10-24T06:48:57.307Z,72.01
2022-10-24T06:51:01.497Z,72.06
2022-10-24T06:53:05.478Z,71.79
2022-10-24T06:55:09.068Z,72.21
2022-10-24T06:57:12.864Z,72.74
2022-10-24T06:59:20.518Z,72.63
2022-10-24T07:01:26.976Z,72.64
2022-10-24T07:03:30.686Z,73.44
2022-10-24T07:05:34.276Z,73.39
2022-10-24T07:07:37.592Z,73.89
2022-10-24T07:09:41.092Z,74.35
2022-10-24T07:11:44.818Z,74.04
2022-10-24T07:13:48.880Z,74.45
2022-10-24T07:15:55.282Z,74.42
2022-10-24T07:17:58.989Z,74.99
2022-10-24T07:20:02.552Z,75.80
2022-10-24T07:22:06.651Z,75.17
2022-10-24T07:24:12.811Z,75.48
2022-10-24T07:26:18.041Z,75.49
2022-10-24T07:28:21.939Z,75.87
2022-10-24T07:30:25.832Z,75.74
2022-10-24T07:32:31.867Z,76.04
2022-10-24T07:34:36.364Z,76.70
2022-10-24T07:36:41.443Z,77.08
2022-10-24T07:38:46.883Z,77.56
2022-10-24T07:40:50.357Z,77.74
2022-10-24T07:42:53.938Z,77.46
2022-10-24T07:44:57.333Z,78.07
2022-10-24T07:47:01.047Z,78.45
2022-10-24T07:49:04.477Z,78.74
2022-10-24T07:51:08.842Z,79.02
2022-10-24T07:53:13.071Z,79.41
2022-10-24T07:55:16.666Z,79.68
2022-10-24T07:57:20.292Z,79.85
2022-10-24T07:59:40.717Z,80.33
2022-10-24T08:01:45.457Z,80.04
2022-10-24T08:03:49.551Z,80.48
2022-10-24T08:05:57.452Z,80.84
2022-10-24T08:08:21.731Z,81.05
2022-10-24T08:10:24.670Z,81.72
2022-10-24T08:12:28.544Z,81.73
2022-10-24T08:14:32.007Z,82.13
2022-10-24T08:16:35.930Z,82.25
2022-10-24T08:18:39.945Z,82.89
2022-10-24T08:20:44.101Z,82.87
2022-10-24T08:22:48.693Z,83.44
2022-10-24T08:24:52.886Z,83.80
2022-10-24T08:26:59.465Z,83.98
2022-10-24T08:29:05.380Z,84.59
2022-10-24T08:31:09.975Z,84.55
2022-10-24T08:33:18.599Z,84.81
2022-10-24T08:35:23.531Z,85.65
2022-10-24T08:37:27.033Z,85.67
2022-10-24T08:39:30.861Z,86.32
2022-10-24T08:41:39.377Z,86.67
2022-10-24T08:43:43.064Z,86.54
2022-10-24T08:46:03.632Z,87.18
2022-10-24T08:48:14.089Z,87.68
2022-10-24T08:50:26.870Z,87.89
2022-10-24T08:52:30.396Z,88.17
2022-10-24T08:54:40.218Z,88.66
2022-10-24T08:56:44.148Z,88.69
2022-10-24T08:58:47.857Z,88.62
2022-10-24T09:00:52.867Z,88.97
2022-10-24T09:03:05.177Z,89.29
2022-10-24T09:05:19.084Z,90.17
2022-10-24T09:07:26.024Z,90.72
2022-10-24T09:09:37.342Z,90.59
2022-10-24T09:11:51.239Z,90.76
2022-10-24T09:13:55.468Z,91.33
2022-10-24T09:15:59.191Z,91.84
2022-10-24T09:18:02.737Z,92.13
2022-10-24T09:20:22.025Z,92.02
2022-10-24T09:22:26.760Z,91.93
2022-10-24T09:24:33.472Z,92.06
2022-10-24T09:26:38.632Z,92.17
2022-10-24T09:28:42.926Z,92.59
2022-10-24T09:30:47.036Z,92.77
2022-10-24T09:32:50.786Z,93.16
2022-10-24T09:34:55.249Z,93.29
2022-10-24T09:36:59.079Z,93.48
2022-10-24T09:39:23.651Z,93.68
2022-10-24T09:41:28.994Z,93.95
2022-10-24T09:43:48.255Z,93.99
2022-10-24T09:45:53.542Z,100.00
2022-10-24T09:47:58.777Z,100.00
2022-10-24T09:50:02.605Z,100.00
2022-10-24T09:52:21.635Z,100.00
2022-10-24T09:54:27.913Z,100.00
2022-10-24T09:56:36.448Z,100.00
2022-10-24T09:58:40.415Z,100.00
2022-10-24T10:00:44.033Z,100.00
2022-10-24T10:03:01.205Z,100.00
2022-10-24T10:05:04.870Z,100.00
2022-10-24T10:07:16.294Z,100.00
2022-10-24T10:09:27.056Z,100.00
2022-10-24T10:11:35.290Z,100.00
2022-10-24T10:13:54.381Z,100.00
2022-10-24T10:16:05.152Z,100.00
2022-10-24T10:18:32.173Z,100.00
2022-10-24T10:20:40.322Z,100.00
2022-10-24T10:22:44.593Z,100.00
2022-10-24T10:24:48.506Z,100.00
2022-10-24T10:26:51.939Z,100.00
2022-10-24T10:28:58.474Z,100.00
2022-10-24T10:31:02.401Z,100.00
2022-10-24T10:33:30.714Z,100.00
2022-10-24T10:35:34.842Z,100.00
2022-10-24T10:37:44.108Z,100.00
2022-10-24T10:40:03.333Z,100.00
2022-10-24T10:42:15.569Z,100.00
2022-10-24T10:44:22.085Z,100.00
2022-10-24T10:46:38.121Z,100.00
2022-10-24T10:48:50.111Z,100.00
2022-10-24T10:51:13.842Z,100.00
2022-10-24T10:53:34.693Z,100.00
2022-10-24T10:55:47.473Z,100.00
2022-10-24T10:58:13.035Z,100.00
2022-10-24T11:00:37.316Z,100.00
2022-10-24T11:02:59.338Z,100.00
2022-10-24T11:05:08.940Z,100.00
2022-10-24T11:07:18.478Z,100.00
2022-10-24T11:09:42.499Z,100.00
2022-10-24T11:11:51.277Z,100.00
2022-10-24T11:14:14.797Z,100.00
2022-10-24T11:16:24.096Z,100.00
2022-10-24T11:18:38.258Z,100.00
2022-10-24T11:20:42.061Z,100.00
2022-10-24T11:22:54.400Z,100.00
2022-10-24T11:25:01.994Z,100.00
2022-10-24T11:27:12.063Z,100.00
2022-10-24T11:29:36.064Z,100.00
2022-10-24T11:32:12.401Z,100.00
2022-10-24T11:34:26.468Z,100.00
2022-10-24T11:36:37.648Z,100.00
2022-10-24T11:38:45.822Z,100.00
2022-10-24T11:40:54.907Z,100.00
2022-10-24T11:43:17.571Z,100.00
2022-10-24T11:45:22.650Z,100.00
2022-10-24T11:47:26.497Z,100.00
2022-10-24T11:49:34.078Z,100.00
2022-10-24T11:51:42.449Z,100.00
2022-10-24T11:53:50.822Z,100.00
2022-10-24T11:56:09.260Z,100.00
2022-10-24T11:58:19.360Z,100.00
2022-10-24T12:00:26.102Z,100.00
2022-10-24T12:02:32.540Z,100.00
2022-10-24T12:04:44.899Z,100.00
2022-10-24T12:06:54.690Z,100.00
2022-10-24T12:09:06.676Z,100.00
2022-10-24T12:11:18.872Z,100.00
2022-10-24T12:13:34.930Z,100.00
2022-10-24T12:15:44.635Z,100.00
2022-10-24T12:18:06.906Z,100.00
2022-10-24T12:20:14.915Z,100.00
2022-10-24T12:22:24.513Z,100.00
2022-10-24T12:24:32.368Z,100.00
2022-10-24T12:26:36.732Z,100.00
2022-10-24T12:28:40.886Z,100.00
2022-10-24T12:30:44.761Z,100.00
2022-10-24T12:32:58.844Z,100.00
2022-10-24T12:35:29.931Z,100.00
2022-10-24T12:37:30.053Z,100.00
2022-10-24T12:39:37.717Z,100.00
2022-10-24T12:41:43.842Z,100.00
2022-10-24T12:43:52.267Z,100.00
2022-10-24T12:45:55.987Z,100.00
2022-10-24T12:48:01.274Z,100.00
2022-10-24T12:50:23.483Z,100.00
2022-10-24T12:52:33.398Z,100.00
2022-10-24T12:54:44.633Z,100.00
2022-10-24T12:56:51.390Z,100.00
2022-10-24T12:58:59.346Z,100.00
2022-10-24T13:01:04.984Z,100.00
2022-10-24T13:03:15.121Z,100.00
2022-10-24T13:05:36.836Z,100.00
2022-10-24T13:07:52.913Z,100.00
2022-10-24T13:10:15.823Z,100.00
2022-10-24T13:12:38.196Z,100.00
2022-10-24T13:14:47.708Z,100.00
2022-10-24T13:17:15.418Z,100.00
2022-10-24T13:19:25.029Z,100.00
2022-10-24T13:21:37.722Z,100.00
2022-10-24T13:23:41.704Z,100.00
2022-10-24T13:25:46.696Z,100.00
2022-10-24T13:28:10.110Z,100.00
2022-10-24T13:30:40.075Z,100.00
2022-10-24T13:32:44.200Z,100.00
2022-10-24T13:34:55.953Z,100.00
2022-10-24T13:37:16.461Z,100.00
2022-10-24T13:39:23.852Z,100.00
2022-10-24T13:41:33.396Z,100.00
2022-10-24T13:43:40.171Z,100.00
2022-10-24T13:46:02.899Z,100.00
2022-10-24T13:48:16.656Z,100.00
2022-10-24T13:50:40.237Z,100.00
2022-10-24T13:52:49.377Z,100.00
2022-10-24T13:54:58.552Z,100.00
2022-10-24T13:57:02.413Z,100.00
2022-10-24T13:59:06.223Z,100.00
2022-10-24T14:01:18.280Z,100.00
2022-10-24T14:03:23.922Z,100.00
2022-10-24T14:05:27.197Z,100.00
2022-10-24T14:07:34.773Z,100.00
2022-10-24T14:09:43.201Z,100.00
2022-10-24T14:11:48.716Z,100.00
2022-10-24T14:14:02.625Z,100.00
2022-10-24T14:16:11.367Z,100.00
2022-10-24T14:20:24.060Z,100.00
2022-10-24T14:22:29.777Z,100.00
2022-10-24T14:24:33.279Z,100.00
2022-10-24T14:28:50.943Z,100.00
2022-10-24T14:30:59.477Z,100.00
2022-10-24T14:33:14.683Z,100.00
2022-10-24T14:35:18.641Z,100.00
2022-10-24T14:37:32.191Z,100.00
2022-10-24T14:39:36.448Z,100.00
2022-10-24T14:41:41.701Z,100.00
2022-10-24T14:44:09.294Z,100.00
2022-10-24T14:46:12.746Z,100.00
2022-10-24T14:48:24.828Z,100.00
2022-10-24T14:50:43.370Z,100.00
2022-10-24T14:52:48.248Z,100.00
2022-10-24T14:54:54.747Z,100.00
2022-10-24T14:56:59.817Z,100.00
2022-10-24T14:59:06.354Z,100.00
2022-10-24T15:01:17.441Z,100.00
2022-10-24T15:03:21.543Z,100.00
2022-10-24T15:05:25.527Z,100.00
2022-10-24T15:07:31.157Z,100.00
2022-10-24T15:09:34.971Z,100.00
2022-10-24T15:11:49.599Z,100.00
2022-10-24T15:14:05.781Z,100.00
2022-10-24T15:16:19.997Z,100.00
2022-10-24T15:18:28.330Z,100.00
2022-10-24T15:20:35.238Z,100.00
2022-10-24T15:22:39.362Z,100.00
2022-10-24T15:24:44.386Z,100.00
2022-10-24T15:26:48.044Z,100.00
2022-10-24T15:29:03.759Z,100.00
2022-10-24T15:31:10.759Z,100.00
2022-10-24T15:33:14.422Z,100.00
2022-10-24T15:35:19.023Z,100.00
2022-10-24T15:37:24.368Z,100.00
2022-10-24T15:39:28.451Z,100.00
2022-10-24T15:41:32.913Z,100.00
2022-10-24T15:43:37.689Z,100.00
2022-10-24T15:45:41.633Z,100.00
2022-10-24T15:47:46.145Z,100.00
2022-10-24T15:49:50.668Z,100.00
2022-10-24T15:52:00.321Z,100.00
2022-10-24T15:54:04.259Z,100.00
2022-10-24T15:56:07.760Z,100.00
2022-10-24T15:58:15.409Z,100.00
2022-10-24T16:00:21.941Z,100.00
2022-10-24T16:02:26.354Z,100.00
2022-10-24T16:04:32.952Z,100.00
2022-10-24T16:06:36.961Z,100.00
2022-10-24T16:08:40.439Z,100.00
2022-10-24T16:10:44.826Z,100.00
2022-10-24T16:12:48.911Z,100.00
2022-10-24T16:14:52.778Z,100.00
2022-10-24T16:16:56.757Z,100.00
2022-10-24T16:19:00.768Z,100.00
2022-10-24T16:21:06.078Z,100.00
2022-10-24T16:23:10.419Z,100.00
2022-10-24T16:25:19.248Z,100.00
2022-10-24T16:27:22.892Z,100.00
2022-10-24T16:29:26.457Z,100.00
2022-10-24T16:31:30.575Z,100.00
2022-10-24T16:33:34.436Z,100.00
2022-10-24T16:35:39.413Z,100.00
2022-10-24T16:37:43.204Z,100.00
2022-10-24T16:39:47.075Z,100.00
2022-10-24T16:41:54.117Z,100.00
2022-10-24T16:43:58.359Z,100.00
2022-10-24T16:46:03.238Z,100.00
2022-10-24T16:48:06.833Z,100.00
2022-10-24T16:50:13.856Z,100.00
2022-10-24T16:52:17.334Z,100.00
2022-10-24T16:54:21.658Z,100.00
2022-10-24T16:56:25.594Z,100.00
2022-10-24T16:58:29.721Z,100.00
2022-10-24T17:00:33.427Z,100.00
2022-10-24T17:02:36.980Z,100.00
2022-10-24T17:04:40.791Z,100.00
2022-10-24T17:06:44.453Z,100.00
2022-10-24T17:08:48.159Z,100.00
2022-10-24T17:10:52.620Z,100.00
2022-10-24T17:12:57.068Z,100.00
2022-10-24T17:15:01.733Z,100.00
2022-10-24T17:17:07.748Z,100.00
2022-10-24T17:19:16.146Z,100.00
2022-10-24T17:21:27.699Z,100.00
2022-10-24T17:23:34.167Z,100.00
2022-10-24T17:25:37.831Z,100.00
2022-10-24T17:27:41.280Z,100.00
2022-10-24T17:29:45.074Z,100.00
2022-10-24T17:31:48.524Z,100.00
2022-10-24T17:33:52.627Z,100.00
2022-10-24T17:35:57.816Z,100.00
2022-10-24T17:38:27.379Z,100.00
2022-10-24T17:40:42.270Z,100.00
2022-10-24T17:42:49.298Z,100.00
2022-10-24T17:44:53.094Z,100.00
2022-10-24T17:46:58.583Z,100.00
2022-10-24T17:49:02.326Z,100.00
2022-10-24T17:51:06.005Z,100.00
2022-10-24T17:53:09.386Z,100.00
2022-10-24T17:57:48.184Z,100.00
2022-10-24T17:59:51.950Z,100.00
2022-10-24T18:01:55.720Z,100.00
2022-10-24T18:03:59.585Z,100.00
2022-10-24T18:06:07.681Z,100.00
2022-10-24T18:08:12.377Z,100.00
2022-10-24T18:10:16.409Z,100.00
2022-10-24T18:12:20.088Z,100.00
2022-10-24T18:14:23.446Z,100.00
2022-10-24T18:16:28.690Z,100.00
2022-10-24T18:18:34.231Z,100.00
2022-10-24T18:20:38.370Z,100.00
2022-10-24T18:22:42.197Z,100.00
2022-10-24T18:24:45.813Z,100.00
2022-10-24T18:26:49.769Z,100.00
2022-10-24T18:28:54.643Z,100.00
2022-10-24T18:30:58.330Z,100.00
2022-10-24T18:33:02.496Z,100.00
2022-10-24T18:35:06.937Z,100.00
2022-10-24T18:37:10.474Z,100.00
2022-10-24T18:39:14.664Z,100.00
2022-10-24T18:41:22.539Z,100.00
2022-10-24T18:43:25.962Z,100.00
2022-10-24T18:45:30.117Z,100.00
2022-10-24T18:47:34.185Z,100.00
2022-10-24T18:49:37.759Z,100.00
2022-10-24T18:52:01.716Z,100.00
2022-10-24T18:54:06.930Z,100.00
2022-10-24T18:56:11.319Z,100.00
2022-10-24T18:58:17.271Z,100.00
2022-10-24T19:00:25.396Z,100.00
2022-10-24T19:05:05.168Z,100.00
2022-10-24T19:07:09.820Z,100.00
2022-10-24T19:09:17.940Z,100.00
2022-10-24T19:11:22.126Z,100.00
2022-10-24T19:13:26.926Z,100.00
2022-10-24T19:15:30.590Z,100.00
2022-10-24T19:17:34.148Z,100.00
2022-10-24T19:19:37.596Z,100.00
2022-10-24T19:21:41.496Z,100.00
2022-10-24T19:23:45.635Z,100.00
2022-10-24T19:25:49.086Z,100.00
2022-10-24T19:29:57.553Z,100.00
2022-10-24T19:32:01.091Z,100.00
2022-10-24T19:34:04.834Z,100.00
2022-10-24T19:36:14.514Z,100.00
2022-10-24T19:38:21.672Z,100.00
2022-10-24T19:40:25.470Z,100.00
2022-10-24T19:42:29.389Z,100.00
2022-10-24T19:44:33.226Z,100.00
2022-10-24T19:46:37.282Z,100.00
2022-10-24T19:48:41.137Z,100.00
2022-10-24T19:50:45.480Z,100.00
2022-10-24T19:52:50.935Z,100.00
2022-10-24T19:54:55.054Z,100.00
2022-10-24T19:56:58.925Z,100.00
2022-10-24T19:59:03.126Z,100.00
2022-10-24T20:01:06.718Z,100.00
2022-10-24T20:03:10.721Z,100.00
2022-10-24T20:05:14.442Z,100.00
2022-10-24T20:07:18.903Z,100.00
2022-10-24T20:09:22.639Z,100.00
2022-10-24T20:11:26.195Z,100.00
2022-10-24T20:13:29.539Z,100.00
2022-10-24T20:15:33.152Z,100.00
2022-10-24T20:17:37.682Z,100.00
2022-10-24T20:19:41.185Z,100.00
2022-10-24T20:21:48.856Z,100.00
2022-10-24T20:23:55.149Z,100.00
2022-10-24T20:26:09.252Z,100.00
2022-10-24T20:28:13.014Z,100.00
2022-10-24T20:30:16.462Z,100.00
2022-10-24T20:32:20.223Z,100.00
2022-10-24T20:34:23.806Z,100.00
2022-10-24T20:36:27.411Z,100.00
2022-10-24T20:38:31.097Z,100.00
2022-10-24T20:40:34.768Z,100.00
2022-10-24T20:42:38.603Z,100.00
2022-10-24T20:44:42.250Z,100.00
2022-10-24T20:46:45.683Z,100.00
2022-10-24T20:48:49.766Z,100.00
2022-10-24T20:50:53.364Z,100.00
2022-10-24T20:52:57.310Z,100.00
2022-10-24T20:55:00.905Z,100.00
2022-10-24T20:57:04.494Z,100.00
2022-10-24T20:59:08.135Z,100.00
2022-10-24T21:01:16.466Z,100.00
2022-10-24T21:03:20.305Z,100.00
2022-10-24T21:05:26.186Z,100.00
2022-10-24T21:07:29.722Z,100.00
2022-10-24T21:09:33.961Z,100.00
2022-10-24T21:11:37.851Z,100.00
2022-10-24T21:13:41.436Z,100.00
2022-10-24T21:15:45.076Z,100.00
2022-10-24T21:17:48.943Z,100.00
2022-10-24T21:19:53.221Z,100.00
2022-10-24T21:21:56.833Z,100.00
2022-10-24T21:24:04.346Z,100.00
2022-10-24T21:26:14.532Z,100.00
2022-10-24T21:28:18.051Z,100.00
2022-10-24T21:30:23.018Z,100.00
2022-10-24T21:32:26.681Z,100.00
2022-10-24T21:34:33.346Z,100.00
2022-10-24T21:36:38.331Z,100.00
2022-10-24T21:38:43.216Z,100.00
2022-10-24T21:40:47.159Z,100.00
2022-10-24T21:42:50.939Z,100.00
2022-10-24T21:44:54.538Z,100.00
2022-10-24T21:46:58.476Z,100.00
2022-10-24T21:49:02.606Z,100.00
2022-10-24T21:51:07.922Z,100.00
2022-10-24T21:53:11.277Z,100.00
2022-10-24T21:55:14.780Z,100.00
2022-10-24T21:57:18.538Z,100.00
2022-10-24T21:59:23.294Z,100.00
2022-10-24T22:01:28.530Z,100.00
2022-10-24T22:03:32.388Z,100.00
2022-10-24T22:05:35.959Z,100.00
2022-10-24T22:07:39.821Z,100.00
2022-10-24T22:09:43.464Z,100.00
2022-10-24T22:11:47.647Z,100.00
2022-10-24T22:13:51.859Z,100.00
2022-10-24T22:15:56.682Z,100.00
2022-10-24T22:18:00.469Z,100.00
2022-10-24T22:20:04.663Z,100.00
2022-10-24T22:22:08.231Z,100.00
2022-10-24T22:24:15.306Z,100.00
2022-10-24T22:26:18.829Z,100.00
2022-10-24T22:28:24.039Z,100.00
2022-10-24T22:30:27.466Z,100.00
2022-10-24T22:32:31.482Z,100.00
2022-10-24T22:34:35.307Z,100.00
2022-10-24T22:36:43.524Z,100.00
2022-10-24T22:38:47.115Z,100.00
2022-10-24T22:42:56.000Z,100.00
2022-10-24T22:44:59.991Z,100.00
2022-10-24T22:47:21.983Z,100.00
2022-10-24T22:49:25.382Z,100.00
2022-10-24T22:51:29.001Z,100.00
2022-10-24T22:53:32.821Z,100.00
2022-10-24T22:55:39.837Z,100.00
2022-10-24T22:57:43.789Z,100.00
2022-10-24T22:59:47.607Z,100.00
2022-10-24T23:02:09.049Z,100.00
2022-10-24T23:04:27.700Z,100.00
2022-10-24T23:06:38.383Z,100.00
2022-10-24T23:08:42.891Z,100.00
2022-10-24T23:10:47.059Z,100.00
2022-10-24T23:12:56.468Z,100.00
2022-10-24T23:15:02.700Z,100.00
2022-10-24T23:17:06.885Z,100.00
2022-10-24T23:19:20.653Z,100.00
2022-10-24T23:21:28.835Z,100.00
2022-10-24T23:23:32.528Z,100.00
2022-10-24T23:25:36.503Z,100.00
2022-10-24T23:27:44.419Z,100.00
2022-10-24T23:29:48.637Z,100.00
2022-10-24T23:31:52.504Z,100.00
2022-10-24T23:33:57.136Z,100.00
2022-10-24T23:36:01.216Z,100.00
2022-10-24T23:38:06.253Z,100.00
2022-10-24T23:40:18.930Z,100.00
2022-10-24T23:42:23.171Z,100.00
2022-10-24T23:44:27.139Z,100.00
2022-10-24T23:46:38.071Z,100.00
2022-10-24T23:48:41.949Z,100.00
2022-10-24T23:50:56.029Z,100.00
2022-10-24T23:53:03.172Z,100.00
2022-10-24T23:55:07.407Z,100.00
2022-10-24T23:57:18.296Z,100.00
2022-10-24T23:59:22.000Z,100.00
